sensor_id;sensor_type;location;lat;lon;timestamp;temperature;humidity
40828;DHT22;26549;50.918;5.338;2024-02-04T00:00:15;11.80;99.90
40828;DHT22;26549;50.918;5.338;2024-02-04T00:02:41;11.80;99.90
40828;DHT22;26549;50.918;5.338;2024-02-04T00:05:06;11.90;99.90
40828;DHT22;26549;50.918;5.338;2024-02-04T00:07:32;11.80;99.90
40828;DHT22;26549;50.918;5.338;2024-02-04T00:09:58;11.70;99.90
40828;DHT22;26549;50.918;5.338;2024-02-04T00:12:24;11.70;99.90
40828;DHT22;26549;50.918;5.338;2024-02-04T00:14:49;11.80;99.90
40828;DHT22;26549;50.918;5.338;2024-02-04T00:17:16;11.70;99.90
40828;DHT22;26549;50.918;5.338;2024-02-04T00:19:42;11.70;99.90
40828;DHT22;26549;50.918;5.338;2024-02-04T00:22:08;11.60;99.90
40828;DHT22;26549;50.918;5.338;2024-02-04T00:24:34;11.80;99.90
40828;DHT22;26549;50.918;5.338;2024-02-04T00:26:59;11.70;99.90
40828;DHT22;26549;50.918;5.338;2024-02-04T00:29:25;11.60;99.90
40828;DHT22;26549;50.918;5.338;2024-02-04T00:31:51;11.70;99.90
40828;DHT22;26549;50.918;5.338;2024-02-04T00:34:18;11.60;99.90
40828;DHT22;26549;50.918;5.338;2024-02-04T00:36:43;11.80;99.90
40828;DHT22;26549;50.918;5.338;2024-02-04T00:39:09;11.80;99.90
40828;DHT22;26549;50.918;5.338;2024-02-04T00:41:35;11.80;99.90
40828;DHT22;26549;50.918;5.338;2024-02-04T00:44:01;11.80;99.90
40828;DHT22;26549;50.918;5.338;2024-02-04T00:46:27;11.80;99.90
40828;DHT22;26549;50.918;5.338;2024-02-04T00:48:53;11.70;99.90
40828;DHT22;26549;50.918;5.338;2024-02-04T00:51:19;11.70;99.90
40828;DHT22;26549;50.918;5.338;2024-02-04T00:53:46;11.80;99.90
40828;DHT22;26549;50.918;5.338;2024-02-04T00:56:12;11.80;99.90
40828;DHT22;26549;50.918;5.338;2024-02-04T00:58:38;11.70;99.90
40828;DHT22;26549;50.918;5.338;2024-02-04T01:01:04;11.60;99.90
40828;DHT22;26549;50.918;5.338;2024-02-04T01:03:31;11.70;99.90
40828;DHT22;26549;50.918;5.338;2024-02-04T01:05:57;11.70;99.90
40828;DHT22;26549;50.918;5.338;2024-02-04T01:08:22;11.70;99.90
40828;DHT22;26549;50.918;5.338;2024-02-04T01:10:50;11.70;99.90
40828;DHT22;26549;50.918;5.338;2024-02-04T01:13:19;11.70;99.90
40828;DHT22;26549;50.918;5.338;2024-02-04T01:15:44;11.70;99.90
40828;DHT22;26549;50.918;5.338;2024-02-04T01:18:10;11.70;99.90
40828;DHT22;26549;50.918;5.338;2024-02-04T01:20:37;11.70;99.90
40828;DHT22;26549;50.918;5.338;2024-02-04T01:23:02;11.70;99.90
40828;DHT22;26549;50.918;5.338;2024-02-04T01:25:28;11.60;99.90
40828;DHT22;26549;50.918;5.338;2024-02-04T01:27:55;11.60;99.90
40828;DHT22;26549;50.918;5.338;2024-02-04T01:30:20;11.70;99.90
40828;DHT22;26549;50.918;5.338;2024-02-04T01:32:46;11.70;99.90
40828;DHT22;26549;50.918;5.338;2024-02-04T01:35:12;11.80;99.90
40828;DHT22;26549;50.918;5.338;2024-02-04T01:37:38;11.80;99.90
40828;DHT22;26549;50.918;5.338;2024-02-04T01:40:05;11.70;99.90
40828;DHT22;26549;50.918;5.338;2024-02-04T01:42:31;11.90;99.90
40828;DHT22;26549;50.918;5.338;2024-02-04T01:44:57;11.70;99.90
40828;DHT22;26549;50.918;5.338;2024-02-04T01:47:22;11.70;99.90
40828;DHT22;26549;50.918;5.338;2024-02-04T01:49:49;11.80;99.90
40828;DHT22;26549;50.918;5.338;2024-02-04T01:52:15;11.80;99.90
40828;DHT22;26549;50.918;5.338;2024-02-04T01:54:42;11.70;99.90
40828;DHT22;26549;50.918;5.338;2024-02-04T01:57:10;11.80;99.90
40828;DHT22;26549;50.918;5.338;2024-02-04T01:59:39;11.70;99.90
40828;DHT22;26549;50.918;5.338;2024-02-04T02:02:06;11.70;99.90
40828;DHT22;26549;50.918;5.338;2024-02-04T02:04:33;11.70;99.90
40828;DHT22;26549;50.918;5.338;2024-02-04T02:06:59;11.80;99.90
40828;DHT22;26549;50.918;5.338;2024-02-04T02:09:25;11.70;99.90
40828;DHT22;26549;50.918;5.338;2024-02-04T02:12:07;11.70;99.90
40828;DHT22;26549;50.918;5.338;2024-02-04T02:14:39;11.70;99.90
40828;DHT22;26549;50.918;5.338;2024-02-04T02:17:12;11.80;99.90
40828;DHT22;26549;50.918;5.338;2024-02-04T02:19:54;11.80;99.90
40828;DHT22;26549;50.918;5.338;2024-02-04T02:25:09;11.70;99.90
40828;DHT22;26549;50.918;5.338;2024-02-04T02:27:48;11.60;99.90
40828;DHT22;26549;50.918;5.338;2024-02-04T02:30:15;11.70;99.90
40828;DHT22;26549;50.918;5.338;2024-02-04T02:32:45;11.70;99.90
40828;DHT22;26549;50.918;5.338;2024-02-04T02:35:16;11.70;99.90
40828;DHT22;26549;50.918;5.338;2024-02-04T02:38:02;11.80;99.90
40828;DHT22;26549;50.918;5.338;2024-02-04T02:43:06;11.80;99.90
40828;DHT22;26549;50.918;5.338;2024-02-04T02:45:34;11.90;99.90
40828;DHT22;26549;50.918;5.338;2024-02-04T02:48:01;11.90;99.90
40828;DHT22;26549;50.918;5.338;2024-02-04T02:50:27;11.90;99.90
40828;DHT22;26549;50.918;5.338;2024-02-04T02:52:53;11.90;99.90
40828;DHT22;26549;50.918;5.338;2024-02-04T02:55:19;11.80;99.90
40828;DHT22;26549;50.918;5.338;2024-02-04T02:57:45;11.70;99.90
40828;DHT22;26549;50.918;5.338;2024-02-04T03:00:11;11.60;99.90
40828;DHT22;26549;50.918;5.338;2024-02-04T03:02:37;11.70;99.90
40828;DHT22;26549;50.918;5.338;2024-02-04T03:05:04;11.80;99.90
40828;DHT22;26549;50.918;5.338;2024-02-04T03:07:30;11.70;99.90
40828;DHT22;26549;50.918;5.338;2024-02-04T03:09:55;11.70;99.90
40828;DHT22;26549;50.918;5.338;2024-02-04T03:12:21;11.80;99.90
40828;DHT22;26549;50.918;5.338;2024-02-04T03:14:47;11.80;99.90
40828;DHT22;26549;50.918;5.338;2024-02-04T03:17:13;11.90;99.90
40828;DHT22;26549;50.918;5.338;2024-02-04T03:19:39;11.70;99.90
40828;DHT22;26549;50.918;5.338;2024-02-04T03:22:05;11.70;99.90
40828;DHT22;26549;50.918;5.338;2024-02-04T03:24:30;11.80;99.90
40828;DHT22;26549;50.918;5.338;2024-02-04T03:26:57;11.80;99.90
40828;DHT22;26549;50.918;5.338;2024-02-04T03:29:23;11.80;99.90
40828;DHT22;26549;50.918;5.338;2024-02-04T03:31:49;11.80;99.90
40828;DHT22;26549;50.918;5.338;2024-02-04T03:34:15;11.90;99.90
40828;DHT22;26549;50.918;5.338;2024-02-04T03:36:40;12.10;99.90
40828;DHT22;26549;50.918;5.338;2024-02-04T03:39:06;12.10;99.90
40828;DHT22;26549;50.918;5.338;2024-02-04T03:41:32;12.00;99.90
40828;DHT22;26549;50.918;5.338;2024-02-04T03:43:58;11.90;99.90
40828;DHT22;26549;50.918;5.338;2024-02-04T03:46:23;11.90;99.90
40828;DHT22;26549;50.918;5.338;2024-02-04T03:48:49;11.90;99.90
40828;DHT22;26549;50.918;5.338;2024-02-04T03:51:16;11.90;99.90
40828;DHT22;26549;50.918;5.338;2024-02-04T03:53:43;11.90;99.90
40828;DHT22;26549;50.918;5.338;2024-02-04T03:56:08;11.90;99.90
40828;DHT22;26549;50.918;5.338;2024-02-04T03:58:35;12.00;99.90
40828;DHT22;26549;50.918;5.338;2024-02-04T04:01:01;11.90;99.90
40828;DHT22;26549;50.918;5.338;2024-02-04T04:03:27;11.90;99.90
40828;DHT22;26549;50.918;5.338;2024-02-04T04:05:56;12.00;99.90
40828;DHT22;26549;50.918;5.338;2024-02-04T04:08:21;12.10;99.90
40828;DHT22;26549;50.918;5.338;2024-02-04T04:10:47;12.10;99.90
40828;DHT22;26549;50.918;5.338;2024-02-04T04:13:15;12.20;99.90
40828;DHT22;26549;50.918;5.338;2024-02-04T04:15:42;12.00;99.90
40828;DHT22;26549;50.918;5.338;2024-02-04T04:18:09;12.10;99.90
40828;DHT22;26549;50.918;5.338;2024-02-04T04:20:37;12.00;99.90
40828;DHT22;26549;50.918;5.338;2024-02-04T04:23:04;12.00;99.90
40828;DHT22;26549;50.918;5.338;2024-02-04T04:25:30;12.10;99.90
40828;DHT22;26549;50.918;5.338;2024-02-04T04:27:56;12.00;99.90
40828;DHT22;26549;50.918;5.338;2024-02-04T04:30:23;12.10;99.90
40828;DHT22;26549;50.918;5.338;2024-02-04T04:32:49;12.00;99.90
40828;DHT22;26549;50.918;5.338;2024-02-04T04:35:15;12.00;99.90
40828;DHT22;26549;50.918;5.338;2024-02-04T04:37:41;11.80;99.90
40828;DHT22;26549;50.918;5.338;2024-02-04T04:40:09;12.00;99.90
40828;DHT22;26549;50.918;5.338;2024-02-04T04:42:35;12.00;99.90
40828;DHT22;26549;50.918;5.338;2024-02-04T04:45:01;11.90;99.90
40828;DHT22;26549;50.918;5.338;2024-02-04T04:47:27;12.00;99.90
40828;DHT22;26549;50.918;5.338;2024-02-04T04:49:52;12.00;99.90
40828;DHT22;26549;50.918;5.338;2024-02-04T04:52:19;12.00;99.90
40828;DHT22;26549;50.918;5.338;2024-02-04T04:54:45;12.00;99.90
40828;DHT22;26549;50.918;5.338;2024-02-04T04:57:10;12.00;99.90
40828;DHT22;26549;50.918;5.338;2024-02-04T04:59:38;12.00;99.90
40828;DHT22;26549;50.918;5.338;2024-02-04T05:02:04;12.00;99.90
40828;DHT22;26549;50.918;5.338;2024-02-04T05:04:31;12.00;99.90
40828;DHT22;26549;50.918;5.338;2024-02-04T05:06:57;12.10;99.90
40828;DHT22;26549;50.918;5.338;2024-02-04T05:09:23;12.10;99.90
40828;DHT22;26549;50.918;5.338;2024-02-04T05:11:50;12.10;99.90
40828;DHT22;26549;50.918;5.338;2024-02-04T05:14:15;12.20;99.90
40828;DHT22;26549;50.918;5.338;2024-02-04T05:16:42;12.20;99.90
40828;DHT22;26549;50.918;5.338;2024-02-04T05:19:09;12.10;99.90
40828;DHT22;26549;50.918;5.338;2024-02-04T05:21:38;12.20;99.90
40828;DHT22;26549;50.918;5.338;2024-02-04T05:24:05;12.20;99.90
40828;DHT22;26549;50.918;5.338;2024-02-04T05:26:31;12.10;99.90
40828;DHT22;26549;50.918;5.338;2024-02-04T05:28:58;11.90;99.90
40828;DHT22;26549;50.918;5.338;2024-02-04T05:31:25;11.90;99.90
40828;DHT22;26549;50.918;5.338;2024-02-04T05:33:52;11.90;99.90
40828;DHT22;26549;50.918;5.338;2024-02-04T05:36:20;12.00;99.90
40828;DHT22;26549;50.918;5.338;2024-02-04T05:38:47;12.00;99.90
40828;DHT22;26549;50.918;5.338;2024-02-04T05:41:12;11.90;99.90
40828;DHT22;26549;50.918;5.338;2024-02-04T05:43:39;11.90;99.90
40828;DHT22;26549;50.918;5.338;2024-02-04T05:46:05;11.90;99.90
40828;DHT22;26549;50.918;5.338;2024-02-04T05:48:30;12.10;99.90
40828;DHT22;26549;50.918;5.338;2024-02-04T05:50:56;12.00;99.90
40828;DHT22;26549;50.918;5.338;2024-02-04T05:53:23;12.00;99.90
40828;DHT22;26549;50.918;5.338;2024-02-04T05:55:50;12.00;99.90
40828;DHT22;26549;50.918;5.338;2024-02-04T05:58:16;11.90;99.90
40828;DHT22;26549;50.918;5.338;2024-02-04T06:00:42;11.80;99.90
40828;DHT22;26549;50.918;5.338;2024-02-04T06:03:09;11.90;99.90
40828;DHT22;26549;50.918;5.338;2024-02-04T06:05:35;11.80;99.90
40828;DHT22;26549;50.918;5.338;2024-02-04T06:08:02;11.80;99.90
40828;DHT22;26549;50.918;5.338;2024-02-04T06:10:28;11.90;99.90
40828;DHT22;26549;50.918;5.338;2024-02-04T06:12:53;11.80;99.90
40828;DHT22;26549;50.918;5.338;2024-02-04T06:15:19;11.90;99.90
40828;DHT22;26549;50.918;5.338;2024-02-04T06:17:46;11.90;99.90
40828;DHT22;26549;50.918;5.338;2024-02-04T06:20:12;11.80;99.90
40828;DHT22;26549;50.918;5.338;2024-02-04T06:22:38;11.80;99.90
40828;DHT22;26549;50.918;5.338;2024-02-04T06:25:04;11.80;99.90
40828;DHT22;26549;50.918;5.338;2024-02-04T06:27:30;11.90;99.90
40828;DHT22;26549;50.918;5.338;2024-02-04T06:29:56;11.90;99.90
40828;DHT22;26549;50.918;5.338;2024-02-04T06:32:22;11.90;99.90
40828;DHT22;26549;50.918;5.338;2024-02-04T06:34:51;11.90;99.90
40828;DHT22;26549;50.918;5.338;2024-02-04T06:37:18;11.80;99.90
40828;DHT22;26549;50.918;5.338;2024-02-04T06:39:44;11.90;99.90
40828;DHT22;26549;50.918;5.338;2024-02-04T06:42:10;11.90;99.90
40828;DHT22;26549;50.918;5.338;2024-02-04T06:44:36;11.80;99.90
40828;DHT22;26549;50.918;5.338;2024-02-04T06:47:03;11.80;99.90
40828;DHT22;26549;50.918;5.338;2024-02-04T06:49:29;11.70;99.90
40828;DHT22;26549;50.918;5.338;2024-02-04T06:51:55;11.80;99.90
40828;DHT22;26549;50.918;5.338;2024-02-04T06:54:23;11.80;99.90
40828;DHT22;26549;50.918;5.338;2024-02-04T06:56:51;11.70;99.90
40828;DHT22;26549;50.918;5.338;2024-02-04T06:59:17;11.80;99.90
40828;DHT22;26549;50.918;5.338;2024-02-04T07:01:43;12.00;99.90
40828;DHT22;26549;50.918;5.338;2024-02-04T07:04:10;11.90;99.90
40828;DHT22;26549;50.918;5.338;2024-02-04T07:06:36;11.80;99.90
40828;DHT22;26549;50.918;5.338;2024-02-04T07:09:01;11.90;99.90
40828;DHT22;26549;50.918;5.338;2024-02-04T07:11:27;11.70;99.90
40828;DHT22;26549;50.918;5.338;2024-02-04T07:13:53;11.80;99.90
40828;DHT22;26549;50.918;5.338;2024-02-04T07:16:24;11.80;99.90
40828;DHT22;26549;50.918;5.338;2024-02-04T07:18:50;11.90;99.90
40828;DHT22;26549;50.918;5.338;2024-02-04T07:21:16;11.80;99.90
40828;DHT22;26549;50.918;5.338;2024-02-04T07:23:42;11.80;99.90
40828;DHT22;26549;50.918;5.338;2024-02-04T07:26:08;11.90;99.90
40828;DHT22;26549;50.918;5.338;2024-02-04T07:28:34;11.90;99.90
40828;DHT22;26549;50.918;5.338;2024-02-04T07:31:00;11.90;99.90
40828;DHT22;26549;50.918;5.338;2024-02-04T07:33:26;11.80;99.90
40828;DHT22;26549;50.918;5.338;2024-02-04T07:35:51;11.70;99.90
40828;DHT22;26549;50.918;5.338;2024-02-04T07:38:17;11.80;99.90
40828;DHT22;26549;50.918;5.338;2024-02-04T07:40:43;11.80;99.90
40828;DHT22;26549;50.918;5.338;2024-02-04T07:43:10;11.80;99.90
40828;DHT22;26549;50.918;5.338;2024-02-04T07:45:36;11.90;99.90
40828;DHT22;26549;50.918;5.338;2024-02-04T07:48:03;11.90;99.90
40828;DHT22;26549;50.918;5.338;2024-02-04T07:50:29;11.70;99.90
40828;DHT22;26549;50.918;5.338;2024-02-04T07:52:55;11.70;99.90
40828;DHT22;26549;50.918;5.338;2024-02-04T07:55:21;11.80;99.90
40828;DHT22;26549;50.918;5.338;2024-02-04T07:57:46;11.80;99.90
40828;DHT22;26549;50.918;5.338;2024-02-04T08:00:12;11.80;99.90
40828;DHT22;26549;50.918;5.338;2024-02-04T08:02:39;11.80;99.90
40828;DHT22;26549;50.918;5.338;2024-02-04T08:05:05;11.90;99.90
40828;DHT22;26549;50.918;5.338;2024-02-04T08:07:32;11.90;99.90
40828;DHT22;26549;50.918;5.338;2024-02-04T08:09:57;11.90;99.90
40828;DHT22;26549;50.918;5.338;2024-02-04T08:12:23;12.00;99.90
40828;DHT22;26549;50.918;5.338;2024-02-04T08:14:49;12.00;99.90
40828;DHT22;26549;50.918;5.338;2024-02-04T08:17:15;12.00;99.90
40828;DHT22;26549;50.918;5.338;2024-02-04T08:19:41;11.90;99.90
40828;DHT22;26549;50.918;5.338;2024-02-04T08:22:07;11.90;99.90
40828;DHT22;26549;50.918;5.338;2024-02-04T08:24:33;11.70;99.90
40828;DHT22;26549;50.918;5.338;2024-02-04T08:26:59;11.80;99.90
40828;DHT22;26549;50.918;5.338;2024-02-04T08:29:25;11.80;99.90
40828;DHT22;26549;50.918;5.338;2024-02-04T08:31:52;11.90;99.90
40828;DHT22;26549;50.918;5.338;2024-02-04T08:34:18;12.00;99.90
40828;DHT22;26549;50.918;5.338;2024-02-04T08:36:47;12.10;99.90
40828;DHT22;26549;50.918;5.338;2024-02-04T08:39:13;11.90;99.90
40828;DHT22;26549;50.918;5.338;2024-02-04T08:41:39;12.00;99.90
40828;DHT22;26549;50.918;5.338;2024-02-04T08:44:05;12.00;99.90
40828;DHT22;26549;50.918;5.338;2024-02-04T08:46:31;12.20;99.90
40828;DHT22;26549;50.918;5.338;2024-02-04T08:48:56;12.20;99.90
40828;DHT22;26549;50.918;5.338;2024-02-04T08:51:22;12.30;99.90
40828;DHT22;26549;50.918;5.338;2024-02-04T08:53:48;12.20;99.90
40828;DHT22;26549;50.918;5.338;2024-02-04T08:56:15;12.10;99.90
40828;DHT22;26549;50.918;5.338;2024-02-04T08:58:40;12.20;99.90
40828;DHT22;26549;50.918;5.338;2024-02-04T09:01:06;12.20;99.90
40828;DHT22;26549;50.918;5.338;2024-02-04T09:03:32;12.30;99.90
40828;DHT22;26549;50.918;5.338;2024-02-04T09:06:00;12.20;99.90
40828;DHT22;26549;50.918;5.338;2024-02-04T09:08:26;12.20;99.90
40828;DHT22;26549;50.918;5.338;2024-02-04T09:10:53;12.30;99.90
40828;DHT22;26549;50.918;5.338;2024-02-04T09:13:19;12.40;99.90
40828;DHT22;26549;50.918;5.338;2024-02-04T09:15:47;12.20;99.90
40828;DHT22;26549;50.918;5.338;2024-02-04T09:18:13;12.30;99.90
40828;DHT22;26549;50.918;5.338;2024-02-04T09:20:39;12.30;99.90
40828;DHT22;26549;50.918;5.338;2024-02-04T09:23:05;12.40;99.90
40828;DHT22;26549;50.918;5.338;2024-02-04T09:25:32;12.50;99.90
40828;DHT22;26549;50.918;5.338;2024-02-04T09:27:57;12.40;99.90
40828;DHT22;26549;50.918;5.338;2024-02-04T09:30:26;12.40;99.90
40828;DHT22;26549;50.918;5.338;2024-02-04T09:32:52;12.40;99.90
40828;DHT22;26549;50.918;5.338;2024-02-04T09:35:18;12.40;99.90
40828;DHT22;26549;50.918;5.338;2024-02-04T09:37:43;12.40;99.90
40828;DHT22;26549;50.918;5.338;2024-02-04T09:40:11;12.40;99.90
40828;DHT22;26549;50.918;5.338;2024-02-04T09:42:37;12.40;99.90
40828;DHT22;26549;50.918;5.338;2024-02-04T09:45:03;12.50;99.90
40828;DHT22;26549;50.918;5.338;2024-02-04T09:47:32;12.60;99.90
40828;DHT22;26549;50.918;5.338;2024-02-04T09:50:00;12.50;99.90
40828;DHT22;26549;50.918;5.338;2024-02-04T09:52:38;12.50;99.90
40828;DHT22;26549;50.918;5.338;2024-02-04T09:55:06;12.50;99.90
40828;DHT22;26549;50.918;5.338;2024-02-04T09:57:34;12.40;99.90
40828;DHT22;26549;50.918;5.338;2024-02-04T10:00:02;12.30;99.90
40828;DHT22;26549;50.918;5.338;2024-02-04T10:02:30;12.30;99.90
40828;DHT22;26549;50.918;5.338;2024-02-04T10:04:57;12.40;99.90
40828;DHT22;26549;50.918;5.338;2024-02-04T10:07:23;12.50;99.90
40828;DHT22;26549;50.918;5.338;2024-02-04T10:09:50;12.60;99.90
40828;DHT22;26549;50.918;5.338;2024-02-04T10:12:16;12.60;99.90
40828;DHT22;26549;50.918;5.338;2024-02-04T10:14:43;12.60;99.90
40828;DHT22;26549;50.918;5.338;2024-02-04T10:17:13;12.60;99.90
40828;DHT22;26549;50.918;5.338;2024-02-04T10:19:40;12.70;99.90
40828;DHT22;26549;50.918;5.338;2024-02-04T10:22:06;12.80;99.90
40828;DHT22;26549;50.918;5.338;2024-02-04T10:24:32;12.90;99.90
40828;DHT22;26549;50.918;5.338;2024-02-04T10:26:58;12.90;99.90
40828;DHT22;26549;50.918;5.338;2024-02-04T10:29:24;12.80;99.90
40828;DHT22;26549;50.918;5.338;2024-02-04T10:31:57;12.80;99.90
40828;DHT22;26549;50.918;5.338;2024-02-04T10:34:25;12.60;99.90
40828;DHT22;26549;50.918;5.338;2024-02-04T10:36:51;12.70;99.90
40828;DHT22;26549;50.918;5.338;2024-02-04T10:39:17;12.80;99.90
40828;DHT22;26549;50.918;5.338;2024-02-04T10:41:50;12.80;99.90
40828;DHT22;26549;50.918;5.338;2024-02-04T10:44:23;12.70;99.90
40828;DHT22;26549;50.918;5.338;2024-02-04T10:46:50;12.60;99.90
40828;DHT22;26549;50.918;5.338;2024-02-04T10:49:18;12.70;99.90
40828;DHT22;26549;50.918;5.338;2024-02-04T10:51:45;12.60;99.90
40828;DHT22;26549;50.918;5.338;2024-02-04T10:54:15;12.70;99.90
40828;DHT22;26549;50.918;5.338;2024-02-04T10:56:44;12.70;99.90
40828;DHT22;26549;50.918;5.338;2024-02-04T10:59:11;12.70;99.90
40828;DHT22;26549;50.918;5.338;2024-02-04T11:01:41;12.50;99.90
40828;DHT22;26549;50.918;5.338;2024-02-04T11:04:10;12.60;99.90
40828;DHT22;26549;50.918;5.338;2024-02-04T11:06:40;12.60;99.90
40828;DHT22;26549;50.918;5.338;2024-02-04T11:09:09;12.50;99.90
40828;DHT22;26549;50.918;5.338;2024-02-04T11:11:38;12.50;99.90
40828;DHT22;26549;50.918;5.338;2024-02-04T11:14:10;12.60;99.90
40828;DHT22;26549;50.918;5.338;2024-02-04T11:17:21;12.60;99.90
40828;DHT22;26549;50.918;5.338;2024-02-04T11:23:02;12.50;99.90
40828;DHT22;26549;50.918;5.338;2024-02-04T11:25:57;12.70;99.90
40828;DHT22;26549;50.918;5.338;2024-02-04T11:28:24;12.60;99.90
40828;DHT22;26549;50.918;5.338;2024-02-04T11:30:51;12.70;99.90
40828;DHT22;26549;50.918;5.338;2024-02-04T11:33:23;12.60;99.90
40828;DHT22;26549;50.918;5.338;2024-02-04T11:35:59;12.70;99.90
40828;DHT22;26549;50.918;5.338;2024-02-04T11:38:51;12.60;99.90
40828;DHT22;26549;50.918;5.338;2024-02-04T11:41:26;12.70;99.90
40828;DHT22;26549;50.918;5.338;2024-02-04T11:43:56;12.80;99.90
40828;DHT22;26549;50.918;5.338;2024-02-04T11:46:29;12.70;99.90
40828;DHT22;26549;50.918;5.338;2024-02-04T11:48:55;12.70;99.90
40828;DHT22;26549;50.918;5.338;2024-02-04T11:51:24;12.60;99.90
40828;DHT22;26549;50.918;5.338;2024-02-04T11:53:51;12.60;99.90
40828;DHT22;26549;50.918;5.338;2024-02-04T11:56:18;12.70;99.90
40828;DHT22;26549;50.918;5.338;2024-02-04T11:58:44;12.70;99.90
40828;DHT22;26549;50.918;5.338;2024-02-04T12:01:10;12.80;99.90
40828;DHT22;26549;50.918;5.338;2024-02-04T12:03:37;12.70;99.90
40828;DHT22;26549;50.918;5.338;2024-02-04T12:06:03;12.80;99.90
40828;DHT22;26549;50.918;5.338;2024-02-04T12:08:32;12.70;99.90
40828;DHT22;26549;50.918;5.338;2024-02-04T12:10:59;12.60;99.90
40828;DHT22;26549;50.918;5.338;2024-02-04T12:13:28;12.70;99.90
40828;DHT22;26549;50.918;5.338;2024-02-04T12:15:54;12.70;99.90
40828;DHT22;26549;50.918;5.338;2024-02-04T12:18:20;12.70;99.90
40828;DHT22;26549;50.918;5.338;2024-02-04T12:20:49;12.70;99.90
40828;DHT22;26549;50.918;5.338;2024-02-04T12:23:15;12.60;99.90
40828;DHT22;26549;50.918;5.338;2024-02-04T12:25:42;12.60;99.90
40828;DHT22;26549;50.918;5.338;2024-02-04T12:28:08;12.80;99.90
40828;DHT22;26549;50.918;5.338;2024-02-04T12:30:34;12.70;99.90
40828;DHT22;26549;50.918;5.338;2024-02-04T12:33:01;12.70;99.90
40828;DHT22;26549;50.918;5.338;2024-02-04T12:35:28;12.80;99.90
40828;DHT22;26549;50.918;5.338;2024-02-04T12:37:55;12.70;99.90
40828;DHT22;26549;50.918;5.338;2024-02-04T12:40:25;12.70;99.90
40828;DHT22;26549;50.918;5.338;2024-02-04T12:43:01;12.70;99.90
40828;DHT22;26549;50.918;5.338;2024-02-04T12:45:28;12.70;99.90
40828;DHT22;26549;50.918;5.338;2024-02-04T12:47:58;12.50;99.90
40828;DHT22;26549;50.918;5.338;2024-02-04T12:50:25;12.50;99.90
40828;DHT22;26549;50.918;5.338;2024-02-04T12:53:04;12.50;99.90
40828;DHT22;26549;50.918;5.338;2024-02-04T12:55:31;12.50;99.90
40828;DHT22;26549;50.918;5.338;2024-02-04T12:58:08;12.50;99.90
40828;DHT22;26549;50.918;5.338;2024-02-04T13:00:35;12.50;99.90
40828;DHT22;26549;50.918;5.338;2024-02-04T13:03:03;12.40;99.90
40828;DHT22;26549;50.918;5.338;2024-02-04T13:05:31;12.50;99.90
40828;DHT22;26549;50.918;5.338;2024-02-04T13:07:58;12.40;99.90
40828;DHT22;26549;50.918;5.338;2024-02-04T13:10:28;12.40;99.90
40828;DHT22;26549;50.918;5.338;2024-02-04T13:13:06;12.50;99.90
40828;DHT22;26549;50.918;5.338;2024-02-04T13:15:43;12.50;99.90
40828;DHT22;26549;50.918;5.338;2024-02-04T13:18:10;12.50;99.90
40828;DHT22;26549;50.918;5.338;2024-02-04T13:20:41;12.60;99.90
40828;DHT22;26549;50.918;5.338;2024-02-04T13:23:14;12.50;99.90
40828;DHT22;26549;50.918;5.338;2024-02-04T13:25:40;12.50;99.90
40828;DHT22;26549;50.918;5.338;2024-02-04T13:28:15;12.60;99.90
40828;DHT22;26549;50.918;5.338;2024-02-04T13:30:41;12.70;99.90
40828;DHT22;26549;50.918;5.338;2024-02-04T13:33:07;12.60;99.90
40828;DHT22;26549;50.918;5.338;2024-02-04T13:35:34;12.50;99.90
40828;DHT22;26549;50.918;5.338;2024-02-04T13:38:00;12.50;99.90
40828;DHT22;26549;50.918;5.338;2024-02-04T13:40:25;12.60;99.90
40828;DHT22;26549;50.918;5.338;2024-02-04T13:42:54;12.40;99.90
40828;DHT22;26549;50.918;5.338;2024-02-04T13:45:21;12.40;99.90
40828;DHT22;26549;50.918;5.338;2024-02-04T13:47:48;12.40;99.90
40828;DHT22;26549;50.918;5.338;2024-02-04T13:50:14;12.30;99.90
40828;DHT22;26549;50.918;5.338;2024-02-04T13:52:40;12.30;99.90
40828;DHT22;26549;50.918;5.338;2024-02-04T13:55:06;12.40;99.90
40828;DHT22;26549;50.918;5.338;2024-02-04T13:57:33;12.40;99.90
40828;DHT22;26549;50.918;5.338;2024-02-04T13:59:59;12.40;99.90
40828;DHT22;26549;50.918;5.338;2024-02-04T14:02:26;12.50;99.90
40828;DHT22;26549;50.918;5.338;2024-02-04T14:04:55;12.50;99.90
40828;DHT22;26549;50.918;5.338;2024-02-04T14:07:21;12.50;99.90
40828;DHT22;26549;50.918;5.338;2024-02-04T14:09:46;12.30;99.90
40828;DHT22;26549;50.918;5.338;2024-02-04T14:12:12;12.30;99.90
40828;DHT22;26549;50.918;5.338;2024-02-04T14:14:39;12.40;99.90
40828;DHT22;26549;50.918;5.338;2024-02-04T14:17:06;12.40;99.90
40828;DHT22;26549;50.918;5.338;2024-02-04T14:19:32;12.30;99.90
40828;DHT22;26549;50.918;5.338;2024-02-04T14:21:58;12.20;99.90
40828;DHT22;26549;50.918;5.338;2024-02-04T14:24:23;12.20;99.90
40828;DHT22;26549;50.918;5.338;2024-02-04T14:26:56;12.30;99.90
40828;DHT22;26549;50.918;5.338;2024-02-04T14:29:22;12.40;99.90
40828;DHT22;26549;50.918;5.338;2024-02-04T14:31:48;12.50;99.90
40828;DHT22;26549;50.918;5.338;2024-02-04T14:34:15;12.50;99.90
40828;DHT22;26549;50.918;5.338;2024-02-04T14:36:41;12.40;99.90
40828;DHT22;26549;50.918;5.338;2024-02-04T14:39:07;12.40;99.90
40828;DHT22;26549;50.918;5.338;2024-02-04T14:41:37;12.50;99.90
40828;DHT22;26549;50.918;5.338;2024-02-04T14:44:04;12.50;99.90
40828;DHT22;26549;50.918;5.338;2024-02-04T14:46:30;12.60;99.90
40828;DHT22;26549;50.918;5.338;2024-02-04T14:48:56;12.60;99.90
40828;DHT22;26549;50.918;5.338;2024-02-04T14:51:22;12.70;99.90
40828;DHT22;26549;50.918;5.338;2024-02-04T14:53:48;12.70;99.90
40828;DHT22;26549;50.918;5.338;2024-02-04T14:56:13;12.60;99.90
40828;DHT22;26549;50.918;5.338;2024-02-04T14:58:39;12.50;99.90
40828;DHT22;26549;50.918;5.338;2024-02-04T15:01:05;12.50;99.90
40828;DHT22;26549;50.918;5.338;2024-02-04T15:03:31;12.30;99.90
40828;DHT22;26549;50.918;5.338;2024-02-04T15:05:57;12.40;99.90
40828;DHT22;26549;50.918;5.338;2024-02-04T15:08:22;12.40;99.90
40828;DHT22;26549;50.918;5.338;2024-02-04T15:10:48;12.50;99.90
40828;DHT22;26549;50.918;5.338;2024-02-04T15:13:14;12.40;99.90
40828;DHT22;26549;50.918;5.338;2024-02-04T15:15:41;12.50;99.90
40828;DHT22;26549;50.918;5.338;2024-02-04T15:18:07;12.60;99.90
40828;DHT22;26549;50.918;5.338;2024-02-04T15:20:33;12.50;99.90
40828;DHT22;26549;50.918;5.338;2024-02-04T15:22:59;12.50;99.90
40828;DHT22;26549;50.918;5.338;2024-02-04T15:25:27;12.60;99.90
40828;DHT22;26549;50.918;5.338;2024-02-04T15:27:54;12.50;99.90
40828;DHT22;26549;50.918;5.338;2024-02-04T15:30:21;12.40;99.90
40828;DHT22;26549;50.918;5.338;2024-02-04T15:32:49;12.30;99.90
40828;DHT22;26549;50.918;5.338;2024-02-04T15:35:18;12.40;99.90
40828;DHT22;26549;50.918;5.338;2024-02-04T15:37:44;12.40;99.90